Time;durP1;ratioP1;P1;durP2;ratioP2;P2;SDS_P1;SDS_P2;PMS_P1;PMS_P2;Temp;Humidity;BMP_temperature;BMP_pressure;BME280_temperature;BME280_humidity;BME280_pressure;Samples;Min_cycle;Max_cycle;Signal;HPM_P1;HPM_P2
2022/11/01 00:00:08;;;;;;;20.15;14.45;;;;;;;11.96;90.88;98121.66;4970442;28;20046;-84
2022/11/01 00:02:35;;;;;;;23.67;14.45;;;;;;;11.97;91.18;98129.34;4971159;28;20046;-84
2022/11/01 00:05:00;;;;;;;22.88;15.32;;;;;;;11.93;90.96;98115.00;4971268;28;20126;-84
2022/11/01 00:07:26;;;;;;;23.17;15.50;;;;;;;11.98;90.91;98111.75;4971353;28;20118;-84
2022/11/01 00:09:52;;;;;;;24.05;16.23;;;;;;;11.98;90.50;98119.63;4970955;28;20105;-84
2022/11/01 00:12:17;;;;;;;24.10;16.25;;;;;;;11.96;90.52;98109.34;4970484;28;20038;-84
2022/11/01 00:14:42;;;;;;;24.45;15.82;;;;;;;11.87;90.41;98104.50;4971247;28;20039;-84
2022/11/01 00:17:08;;;;;;;29.83;16.38;;;;;;;11.82;89.83;98105.16;4971751;28;20121;-84
2022/11/01 00:19:33;;;;;;;25.75;16.70;;;;;;;11.77;89.72;98097.03;4971041;28;20882;-84
2022/11/01 00:21:59;;;;;;;22.65;16.40;;;;;;;11.70;89.85;98098.88;4970584;28;20039;-84
2022/11/01 00:24:25;;;;;;;24.52;15.35;;;;;;;11.66;89.53;98092.41;4971067;28;20542;-84
2022/11/01 00:26:50;;;;;;;19.42;13.95;;;;;;;11.63;89.65;98100.69;4971335;28;20038;-84
2022/11/01 00:29:16;;;;;;;23.08;15.30;;;;;;;11.55;89.01;98103.56;4970847;28;20105;-83
2022/11/01 00:31:41;;;;;;;24.55;16.05;;;;;;;11.61;88.91;98124.56;4970889;28;20057;-83
2022/11/01 00:34:07;;;;;;;22.33;14.73;;;;;;;11.61;88.66;98129.00;4971408;28;20043;-83
2022/11/01 00:36:35;;;;;;;21.58;13.43;;;;;;;11.68;88.74;98140.31;4971340;28;20043;-83
2022/11/01 00:39:01;;;;;;;19.15;13.43;;;;;;;11.72;88.82;98126.56;4985635;28;20039;-84
2022/11/01 00:41:27;;;;;;;22.67;13.32;;;;;;;11.70;88.01;98127.78;4970840;28;20041;-84
2022/11/01 00:43:52;;;;;;;23.85;14.23;;;;;;;11.75;87.91;98144.56;4970415;28;20042;-83
2022/11/01 00:46:18;;;;;;;21.67;13.52;;;;;;;11.69;87.90;98128.78;4967643;28;20050;-84
2022/11/01 00:48:44;;;;;;;20.77;13.27;;;;;;;11.66;87.89;98118.69;4969593;28;20093;-84
2022/11/01 00:51:09;;;;;;;22.58;13.95;;;;;;;11.66;88.00;98129.19;4968979;28;20038;-84
2022/11/01 00:53:35;;;;;;;20.15;13.85;;;;;;;11.62;87.90;98123.53;4971165;28;20065;-84
2022/11/01 00:56:03;;;;;;;23.42;14.48;;;;;;;11.62;88.24;98118.28;4970047;28;20513;-84
2022/11/01 00:58:29;;;;;;;22.23;14.48;;;;;;;11.52;89.14;98118.72;4970756;28;20544;-84
2022/11/01 01:00:54;;;;;;;23.13;15.05;;;;;;;11.48;90.03;98125.38;4969931;28;20026;-84
2022/11/01 01:03:20;;;;;;;27.85;15.88;;;;;;;11.55;90.39;98132.44;4969515;28;20039;-84
2022/11/01 01:05:50;;;;;;;22.98;14.38;;;;;;;11.56;90.77;98136.69;4970828;28;20125;-83
2022/11/01 01:08:16;;;;;;;22.33;14.38;;;;;;;11.60;90.93;98132.66;4968088;28;20078;-85
2022/11/01 01:10:41;;;;;;;22.05;14.07;;;;;;;11.63;90.76;98132.22;4970399;28;20070;-84
2022/11/01 01:13:07;;;;;;;25.88;15.18;;;;;;;11.65;90.44;98135.47;4970488;28;20142;-83
2022/11/01 01:15:32;;;;;;;27.00;15.65;;;;;;;11.67;90.57;98120.28;4970327;28;20498;-83
2022/11/01 01:17:58;;;;;;;22.17;15.45;;;;;;;11.65;90.49;98122.34;4969949;28;20089;-84
2022/11/01 01:20:24;;;;;;;25.08;15.60;;;;;;;11.68;90.96;98127.97;4969328;28;20079;-84
2022/11/01 01:22:49;;;;;;;27.17;15.98;;;;;;;11.66;90.36;98130.00;4969702;28;20516;-83
2022/11/01 01:25:16;;;;;;;23.65;16.42;;;;;;;11.66;90.22;98132.63;4969651;28;20663;-84
2022/11/01 01:27:42;;;;;;;23.75;16.70;;;;;;;11.63;89.68;98126.97;4970244;28;20026;-83
2022/11/01 01:30:08;;;;;;;26.80;16.65;;;;;;;11.65;88.83;98136.28;4969751;28;20545;-82
2022/11/01 01:32:35;;;;;;;27.00;16.88;;;;;;;11.71;88.38;98145.16;4969948;28;20422;-83
2022/11/01 01:35:01;;;;;;;27.42;17.13;;;;;;;11.73;88.43;98137.88;4970208;28;20524;-83
2022/11/01 01:37:26;;;;;;;24.00;16.88;;;;;;;11.82;88.01;98130.63;4970294;28;20042;-84
2022/11/01 01:39:52;;;;;;;27.38;16.30;;;;;;;11.80;88.02;98133.41;4969753;28;20038;-84
2022/11/01 01:42:41;;;;;;;24.85;14.50;;;;;;;11.70;88.35;98133.03;4969933;28;20065;-84
2022/11/01 01:45:15;;;;;;;22.88;14.07;;;;;;;11.70;88.95;98138.28;4966533;28;20043;-83
2022/11/01 01:47:47;;;;;;;21.23;15.18;;;;;;;11.66;88.80;98132.63;4969886;28;20042;-84
2022/11/01 01:50:28;;;;;;;24.35;15.73;;;;;;;11.63;89.09;98137.47;4969453;28;20038;-85
2022/11/01 01:53:05;;;;;;;24.13;15.63;;;;;;;11.59;89.44;98123.16;4969426;28;20042;-84
2022/11/01 01:55:47;;;;;;;21.45;14.77;;;;;;;11.53;91.34;98107.19;4984617;28;20047;-84
2022/11/01 01:58:18;;;;;;;22.50;14.70;;;;;;;11.60;92.55;98122.13;4969524;28;20035;-85
2022/11/01 02:00:44;;;;;;;24.10;15.98;;;;;;;11.61;94.00;98119.28;4984437;28;20043;-83
2022/11/01 02:03:11;;;;;;;24.85;15.85;;;;;;;11.62;92.83;98128.78;4969748;28;20046;-84
2022/11/01 02:05:49;;;;;;;25.63;16.70;;;;;;;11.63;93.21;98124.34;4969898;28;20038;-83
2022/11/01 02:08:25;;;;;;;25.70;16.35;;;;;;;11.67;93.59;98128.19;4968993;28;20377;-83
2022/11/01 02:11:02;;;;;;;23.60;16.30;;;;;;;11.75;92.92;98135.84;4969538;28;20035;-84
2022/11/01 02:13:30;;;;;;;25.13;15.65;;;;;;;11.80;92.85;98133.41;4969658;28;20043;-84
2022/11/01 02:16:13;;;;;;;26.83;16.05;;;;;;;11.87;92.89;98128.97;4966976;28;20039;-83
2022/11/01 02:19:01;;;;;;;25.70;15.93;;;;;;;11.81;91.68;98127.16;4968203;28;20049;-84
2022/11/01 02:22:03;;;;;;;26.00;16.23;;;;;;;11.87;91.30;98117.63;4969588;28;20051;-83
2022/11/01 02:25:02;;;;;;;23.73;16.38;;;;;;;11.88;90.37;98122.72;4969513;28;20038;-83
2022/11/01 02:28:41;;;;;;;26.27;16.45;;;;;;;11.85;90.02;98117.84;4965359;28;20234;-83
2022/11/01 02:31:25;;;;;;;23.90;15.63;;;;;;;11.85;91.26;98119.69;4965582;28;20121;-83
2022/11/01 02:34:17;;;;;;;23.95;15.63;;;;;;;11.83;92.14;98100.69;4966319;28;20038;-83
2022/11/01 02:36:57;;;;;;;22.83;14.77;;;;;;;11.88;92.00;98106.94;4971165;28;20038;-83
2022/11/01 02:39:32;;;;;;;21.50;14.75;;;;;;;11.97;91.17;98105.69;4987838;28;20034;-83
2022/11/01 02:42:24;;;;;;;27.38;15.80;;;;;;;12.04;90.01;98111.72;4971791;28;20441;-83
2022/11/01 02:45:11;;;;;;;23.35;16.05;;;;;;;12.05;89.86;98100.22;4970225;28;20113;-83
2022/11/01 02:47:39;;;;;;;23.52;15.68;;;;;;;12.09;88.93;98115.56;4972192;28;20089;-83
2022/11/01 02:50:10;;;;;;;22.05;14.95;;;;;;;12.13;89.27;98119.38;4972735;28;20047;-83
2022/11/01 02:52:40;;;;;;;24.58;15.70;;;;;;;12.13;89.13;98117.56;4971781;28;20109;-83
2022/11/01 02:55:29;;;;;;;25.55;16.77;;;;;;;12.12;88.37;98125.66;4972366;28;20430;-83
2022/11/01 02:57:59;;;;;;;28.73;16.90;;;;;;;12.02;87.90;98119.00;4972713;28;20070;-84
2022/11/01 03:00:29;;;;;;;26.93;17.77;;;;;;;11.99;88.43;98122.03;4969929;28;20827;-83
2022/11/01 03:03:03;;;;;;;25.90;17.75;;;;;;;11.95;88.44;98126.13;4970079;28;20037;-84
2022/11/01 03:05:38;;;;;;;27.73;16.90;;;;;;;11.91;88.67;98122.28;4970966;28;20113;-83
2022/11/01 03:08:09;;;;;;;26.00;16.73;;;;;;;11.86;88.69;98127.34;4971458;28;20062;-83
2022/11/01 03:10:48;;;;;;;26.92;17.20;;;;;;;11.77;88.27;98121.50;4971801;28;20097;-83
2022/11/01 03:13:31;;;;;;;25.85;17.02;;;;;;;11.68;88.54;98124.53;4972172;28;20044;-84
2022/11/01 03:16:19;;;;;;;23.95;17.60;;;;;;;11.57;88.86;98115.47;4965952;28;20039;-84
2022/11/01 03:19:02;;;;;;;26.80;16.55;;;;;;;11.61;88.71;98121.94;4969015;28;20036;-84
2022/11/01 03:21:35;;;;;;;26.15;16.88;;;;;;;11.54;88.85;98118.50;4970822;28;20101;-83
2022/11/01 03:24:18;;;;;;;23.00;16.98;;;;;;;11.58;88.29;98132.84;4972447;28;20122;-83
2022/11/01 03:26:52;;;;;;;26.60;18.33;;;;;;;11.57;88.06;98122.53;4970931;28;20034;-83
2022/11/01 03:29:21;;;;;;;28.35;17.55;;;;;;;11.51;87.38;98134.66;4971354;28;20101;-84
2022/11/01 03:31:50;;;;;;;27.42;18.38;;;;;;;11.48;87.42;98141.16;4969203;28;20046;-83
2022/11/01 03:34:19;;;;;;;30.23;18.38;;;;;;;11.44;87.87;98137.31;4970553;28;20045;-84
2022/11/01 03:36:52;;;;;;;26.58;16.50;;;;;;;11.41;88.28;98142.97;4971615;28;20039;-84
2022/11/01 03:39:28;;;;;;;26.75;16.45;;;;;;;11.36;88.89;98136.72;4969447;28;20121;-84
2022/11/01 03:42:04;;;;;;;27.67;15.95;;;;;;;11.33;90.22;98137.91;4970580;28;20042;-84
2022/11/01 03:44:37;;;;;;;26.10;15.95;;;;;;;11.32;91.46;98136.31;4969979;28;20153;-84
2022/11/01 03:47:03;;;;;;;27.45;16.17;;;;;;;11.30;91.65;98133.09;4968362;28;20031;-84
2022/11/01 03:49:28;;;;;;;25.38;16.98;;;;;;;11.30;89.95;98148.03;4971361;28;20053;-84
2022/11/01 03:51:54;;;;;;;28.20;16.52;;;;;;;11.30;89.94;98138.34;4971981;28;20035;-83
2022/11/01 03:54:20;;;;;;;25.73;16.80;;;;;;;11.34;89.18;98138.75;4986846;28;20068;-83
2022/11/01 03:56:45;;;;;;;27.70;17.63;;;;;;;11.35;89.23;98141.16;4986407;28;20042;-83
2022/11/01 03:59:11;;;;;;;27.67;16.88;;;;;;;11.41;88.53;98155.31;4971611;28;20162;-84
2022/11/01 04:01:36;;;;;;;24.80;16.60;;;;;;;11.45;88.89;98157.28;4971487;28;20045;-83
2022/11/01 04:04:02;;;;;;;26.20;16.00;;;;;;;11.45;88.63;98159.91;4971726;28;20026;-83
2022/11/01 04:06:28;;;;;;;25.25;16.98;;;;;;;11.46;88.99;98140.56;4971198;28;20494;-84
2022/11/01 04:08:54;;;;;;;23.75;15.50;;;;;;;11.45;88.89;98151.25;4971589;28;20027;-83
2022/11/01 04:11:20;;;;;;;24.52;15.77;;;;;;;11.42;89.23;98151.66;4971220;28;20533;-84
2022/11/01 04:13:46;;;;;;;20.92;15.00;;;;;;;11.43;90.02;98154.06;4971558;28;20038;-83
2022/11/01 04:21:41;;;;;;;24.63;16.13;;;;;;;11.47;90.62;98159.75;4970480;28;20092;-83
2022/11/01 04:24:07;;;;;;;26.73;16.58;;;;;;;11.45;88.71;98170.44;4971584;28;20117;-83
2022/11/01 04:26:33;;;;;;;26.33;17.17;;;;;;;11.52;88.39;98173.06;4970942;28;20034;-83
2022/11/01 04:28:59;;;;;;;24.55;16.05;;;;;;;11.55;88.10;98169.22;4967569;28;20047;-83
2022/11/01 04:31:35;;;;;;;26.70;15.95;;;;;;;11.60;88.16;98172.06;4970724;28;20031;-83
2022/11/01 04:34:03;;;;;;;27.75;16.52;;;;;;;11.59;87.92;98162.56;4971355;28;20402;-84
2022/11/01 04:36:30;;;;;;;23.67;16.27;;;;;;;11.62;88.57;98170.81;4970631;28;20039;-83
2022/11/01 04:38:57;;;;;;;23.38;15.75;;;;;;;11.63;88.72;98166.38;4970810;28;20058;-84
2022/11/01 04:41:28;;;;;;;19.75;15.00;;;;;;;11.56;88.56;98169.00;4970319;28;20057;-83
2022/11/01 04:43:57;;;;;;;20.98;15.88;;;;;;;11.52;88.95;98167.81;4970358;28;20117;-83
2022/11/01 04:46:23;;;;;;;25.73;15.38;;;;;;;11.52;88.91;98179.13;4967818;28;20031;-83
2022/11/01 04:48:49;;;;;;;24.63;15.13;;;;;;;11.45;89.24;98173.06;4967740;28;20479;-84
2022/11/01 04:51:14;;;;;;;24.90;16.00;;;;;;;11.44;90.41;98166.19;4970095;28;20031;-84
2022/11/01 04:53:40;;;;;;;23.27;15.48;;;;;;;11.48;91.53;98177.09;4970501;28;20110;-84
2022/11/01 04:56:07;;;;;;;25.50;15.93;;;;;;;11.42;91.96;98178.72;4969366;28;20046;-83
2022/11/01 04:58:35;;;;;;;27.48;15.65;;;;;;;11.41;92.03;98177.13;4969599;28;20482;-83
2022/11/01 05:01:07;;;;;;;24.77;16.25;;;;;;;11.44;93.66;98181.94;4969707;28;20034;-83
2022/11/01 05:03:34;;;;;;;27.27;16.40;;;;;;;11.46;93.33;98176.50;4970505;28;20039;-83
2022/11/01 05:06:00;;;;;;;25.77;16.60;;;;;;;11.54;92.15;98181.56;4970262;28;20046;-84
2022/11/01 05:08:26;;;;;;;24.60;15.50;;;;;;;11.57;92.09;98182.94;4968759;28;20039;-83
2022/11/01 05:10:54;;;;;;;26.60;16.15;;;;;;;11.55;91.58;98182.34;4969874;28;20057;-83
2022/11/01 05:13:20;;;;;;;20.88;15.60;;;;;;;11.58;89.86;98197.72;4969926;28;20498;-83
2022/11/01 05:15:45;;;;;;;23.33;15.98;;;;;;;11.55;88.64;98203.38;4970203;28;20046;-83
2022/11/01 05:18:11;;;;;;;22.55;15.30;;;;;;;11.59;89.37;98204.59;4970075;28;20675;-83
2022/11/01 05:20:36;;;;;;;22.85;15.05;;;;;;;11.62;89.78;98206.78;4970153;28;20418;-83
2022/11/01 05:23:04;;;;;;;20.17;14.68;;;;;;;11.67;90.18;98207.81;4969971;28;20105;-83
2022/11/01 05:25:31;;;;;;;23.75;14.23;;;;;;;11.68;90.57;98208.59;4969847;28;20521;-84
2022/11/01 05:28:10;;;;;;;21.15;13.88;;;;;;;11.70;91.00;98211.84;4968961;28;20054;-83
2022/11/01 05:30:37;;;;;;;22.17;13.77;;;;;;;11.73;91.15;98222.75;4983206;28;20109;-83
2022/11/01 05:33:05;;;;;;;22.33;14.40;;;;;;;11.70;91.85;98217.13;4969920;28;20383;-83
2022/11/01 05:35:34;;;;;;;23.10;14.57;;;;;;;11.78;91.94;98227.41;4969861;28;20126;-83
2022/11/01 05:38:02;;;;;;;22.00;13.98;;;;;;;11.80;92.29;98222.75;4968436;28;20042;-83
2022/11/01 05:40:28;;;;;;;23.20;14.25;;;;;;;11.80;92.11;98236.69;4965602;28;20081;-83
2022/11/01 05:42:53;;;;;;;23.45;13.60;;;;;;;11.81;92.30;98224.38;4969689;28;20042;-84
2022/11/01 05:45:19;;;;;;;19.45;14.00;;;;;;;11.79;92.53;98224.56;4966383;28;20034;-84
2022/11/01 05:47:45;;;;;;;20.67;13.52;;;;;;;11.83;92.03;98248.66;4977511;28;20085;-83
2022/11/01 05:50:14;;;;;;;19.08;13.57;;;;;;;11.86;91.28;98245.59;4969407;28;20046;-83
2022/11/01 05:52:40;;;;;;;21.48;13.50;;;;;;;11.92;90.82;98241.34;4970269;28;20050;-83
2022/11/01 05:55:08;;;;;;;19.67;14.15;;;;;;;11.90;90.76;98248.66;4969526;28;20121;-84
2022/11/01 05:57:34;;;;;;;23.00;14.00;;;;;;;11.94;90.94;98255.94;4969625;28;20093;-83
2022/11/01 05:59:59;;;;;;;25.35;18.38;;;;;;;11.89;90.79;98245.22;4969722;28;20039;-84
2022/11/01 06:02:25;;;;;;;28.55;19.48;;;;;;;11.95;90.99;98254.91;4969168;28;20039;-83
2022/11/01 06:04:50;;;;;;;23.88;14.50;;;;;;;11.91;90.95;98258.94;4978107;28;20035;-83
2022/11/01 06:07:16;;;;;;;20.98;13.68;;;;;;;11.96;91.33;98264.41;4969303;28;20062;-83
2022/11/01 06:09:42;;;;;;;22.05;13.38;;;;;;;11.91;91.30;98261.56;4969349;28;20360;-84
2022/11/01 06:12:07;;;;;;;24.42;15.18;;;;;;;11.92;91.73;98268.44;4973168;28;20035;-83
2022/11/01 06:14:33;;;;;;;25.17;14.43;;;;;;;11.90;91.39;98270.47;4973639;28;20114;-83
2022/11/01 06:16:58;;;;;;;18.80;13.75;;;;;;;11.80;92.28;98272.66;4972904;28;20035;-83
2022/11/01 06:19:24;;;;;;;21.85;14.77;;;;;;;11.83;92.81;98269.69;4973041;28;20027;-83
2022/11/01 06:21:49;;;;;;;24.50;14.63;;;;;;;11.89;92.64;98278.56;4973279;28;20066;-83
2022/11/01 06:24:14;;;;;;;22.23;14.80;;;;;;;11.88;92.72;98272.50;4973354;28;20490;-83
2022/11/01 06:26:40;;;;;;;23.60;13.77;;;;;;;11.86;93.31;98263.19;4973617;28;20030;-84
2022/11/01 06:29:05;;;;;;;20.27;14.50;;;;;;;11.95;93.45;98278.56;4972871;28;20105;-84
2022/11/01 06:31:31;;;;;;;21.35;14.77;;;;;;;11.93;93.18;98275.31;4972915;28;20039;-84
2022/11/01 06:33:57;;;;;;;23.55;13.40;;;;;;;11.97;93.17;98279.16;4972581;28;20122;-83
2022/11/01 06:36:23;;;;;;;23.00;14.35;;;;;;;11.99;93.31;98274.50;4973174;28;20569;-84
2022/11/01 06:38:49;;;;;;;20.40;14.40;;;;;;;12.00;93.44;98270.88;4987594;28;20042;-84
2022/11/01 06:41:15;;;;;;;21.58;14.13;;;;;;;12.04;93.62;98282.59;4972169;28;20026;-82
2022/11/01 06:43:41;;;;;;;25.75;13.93;;;;;;;12.14;93.67;98287.44;4971834;28;20030;-81
2022/11/01 06:46:06;;;;;;;22.00;13.88;;;;;;;12.20;92.94;98285.81;4968585;28;20034;-81
2022/11/01 06:48:33;;;;;;;21.60;14.07;;;;;;;12.20;92.70;98291.06;4972783;28;20037;-81
2022/11/01 06:51:02;;;;;;;23.52;13.90;;;;;;;12.20;92.55;98297.13;4971661;28;20102;-81
2022/11/01 06:53:29;;;;;;;19.50;13.38;;;;;;;12.23;92.66;98311.69;4970813;28;20047;-81
2022/11/01 06:55:58;;;;;;;18.90;12.93;;;;;;;12.27;92.69;98312.91;4971219;28;20113;-81
2022/11/01 06:58:24;;;;;;;19.40;13.43;;;;;;;12.34;92.37;98313.69;4970191;28;20039;-81
2022/11/01 07:00:50;;;;;;;20.15;13.48;;;;;;;12.39;91.91;98321.78;4972455;28;20034;-81
2022/11/01 07:03:15;;;;;;;21.00;13.25;;;;;;;12.44;91.90;98329.88;4971870;28;20031;-83
2022/11/01 07:05:42;;;;;;;17.10;12.88;;;;;;;12.48;92.00;98328.44;4971858;28;20130;-83
2022/11/01 07:08:11;;;;;;;18.92;13.52;;;;;;;12.36;91.41;98327.47;4972904;28;20093;-83
2022/11/01 07:10:41;;;;;;;19.67;12.82;;;;;;;12.43;91.81;98327.44;4971584;28;20070;-83
2022/11/01 07:13:11;;;;;;;18.42;12.48;;;;;;;12.44;92.08;98335.13;4971235;28;20046;-83
2022/11/01 07:15:37;;;;;;;20.25;13.57;;;;;;;12.46;91.32;98338.34;4985840;28;20038;-83
2022/11/01 07:18:07;;;;;;;19.38;13.60;;;;;;;12.52;91.40;98340.16;4971755;28;20046;-83
2022/11/01 07:20:40;;;;;;;15.15;12.23;;;;;;;12.48;90.65;98328.44;4970995;28;20039;-84
2022/11/01 07:23:11;;;;;;;16.95;11.88;;;;;;;12.50;90.61;98334.31;4983917;28;20038;-83
2022/11/01 07:25:37;;;;;;;19.75;12.80;;;;;;;12.42;90.92;98326.66;4970309;28;20522;-83
2022/11/01 07:28:02;;;;;;;17.83;12.48;;;;;;;12.51;90.39;98346.44;4971140;28;20038;-83
2022/11/01 07:30:28;;;;;;;15.90;12.15;;;;;;;12.51;90.27;98341.19;4967954;28;20066;-83
2022/11/01 07:32:56;;;;;;;18.73;12.40;;;;;;;12.68;90.62;98343.38;4971468;28;20046;-83
2022/11/01 07:35:23;;;;;;;18.48;12.40;;;;;;;12.74;90.03;98339.91;4975435;28;20066;-83
2022/11/01 07:37:49;;;;;;;17.25;11.95;;;;;;;12.82;89.44;98344.94;4971308;28;20038;-83
2022/11/01 07:40:15;;;;;;;21.45;13.27;;;;;;;12.95;89.38;98358.06;4970825;28;20491;-83
2022/11/01 07:42:42;;;;;;;20.20;13.30;;;;;;;13.06;89.00;98381.09;4972320;28;20436;-82
2022/11/01 07:45:11;;;;;;;18.00;12.43;;;;;;;13.18;89.28;98383.09;4966548;28;20517;-82
2022/11/01 07:47:37;;;;;;;16.38;12.77;;;;;;;13.28;89.02;98388.75;4969528;28;20038;-82
2022/11/01 07:50:04;;;;;;;19.67;12.88;;;;;;;13.41;89.03;98383.41;4970755;28;20082;-82
2022/11/01 07:52:33;;;;;;;16.75;12.60;;;;;;;13.48;87.27;98386.00;4970889;28;20126;-82
2022/11/01 07:54:58;;;;;;;18.67;12.05;;;;;;;13.65;87.06;98393.22;4971315;28;20034;-83
2022/11/01 07:57:24;;;;;;;17.15;11.82;;;;;;;13.83;88.09;98403.03;4971823;28;20728;-82
2022/11/01 07:59:49;;;;;;;15.75;10.93;;;;;;;13.91;85.59;98409.88;4970653;28;20065;-83
2022/11/01 08:02:15;;;;;;;18.27;11.65;;;;;;;13.88;85.12;98400.59;4971016;28;20085;-82
2022/11/01 08:04:40;;;;;;;16.83;12.23;;;;;;;14.01;85.27;98418.13;4971299;28;20049;-83
2022/11/01 08:07:06;;;;;;;17.63;12.38;;;;;;;13.90;84.46;98403.81;4970139;28;20102;-83
2022/11/01 08:09:31;;;;;;;18.27;11.93;;;;;;;13.96;84.20;98406.63;4969671;28;20474;-83
2022/11/01 08:14:22;;;;;;;14.50;11.40;;;;;;;14.02;84.86;98389.94;4969786;28;20084;-82
2022/11/01 08:16:54;;;;;;;15.65;10.90;;;;;;;14.04;83.63;98394.00;4962304;28;20585;-83
2022/11/01 08:19:23;;;;;;;13.82;10.82;;;;;;;14.13;83.83;98395.31;4969071;28;20113;-84
2022/11/01 08:21:51;;;;;;;17.42;11.35;;;;;;;14.17;82.62;98408.91;4968966;28;20030;-82
2022/11/01 08:24:17;;;;;;;13.93;12.15;;;;;;;14.20;82.65;98406.63;4968507;28;20052;-83
2022/11/01 08:26:42;;;;;;;16.83;11.90;;;;;;;14.19;82.90;98401.56;4969326;28;20064;-84
2022/11/01 08:29:08;;;;;;;14.95;10.85;;;;;;;14.25;82.13;98394.63;4970232;28;20085;-84
2022/11/01 08:31:38;;;;;;;15.93;12.40;;;;;;;14.37;83.22;98396.34;4927705;28;20105;-83
2022/11/01 08:34:04;;;;;;;19.80;11.65;;;;;;;14.38;82.08;98391.88;4969445;28;20105;-83
2022/11/01 08:36:29;;;;;;;14.85;11.65;;;;;;;14.42;81.69;98393.06;4969724;28;20113;-83
2022/11/01 08:38:56;;;;;;;14.50;11.15;;;;;;;14.54;82.14;98377.34;4969368;28;20042;-83
2022/11/01 08:41:22;;;;;;;13.30;10.50;;;;;;;14.64;81.10;98398.78;4969415;28;20052;-83
2022/11/01 08:43:48;;;;;;;16.75;10.48;;;;;;;14.71;81.19;98392.41;4984090;28;20090;-83
2022/11/01 08:46:13;;;;;;;15.98;10.98;;;;;;;14.66;80.79;98386.16;4966863;28;20042;-83
2022/11/01 08:48:39;;;;;;;16.33;10.25;;;;;;;14.75;80.64;98389.31;4970284;28;20125;-83
2022/11/01 08:51:08;;;;;;;13.65;11.02;;;;;;;14.80;81.56;98402.69;4970352;28;20041;-83
2022/11/01 08:53:33;;;;;;;15.52;10.68;;;;;;;14.87;80.43;98413.97;4970703;28;20037;-84
2022/11/01 08:55:59;;;;;;;15.02;10.90;;;;;;;14.84;80.42;98417.06;4971317;28;20039;-83
2022/11/01 08:58:25;;;;;;;15.05;10.77;;;;;;;14.89;80.23;98417.22;4971539;28;20046;-84
2022/11/01 09:00:51;;;;;;;15.30;10.38;;;;;;;14.91;80.05;98420.44;4970239;28;20058;-83
2022/11/01 09:03:16;;;;;;;15.25;10.38;;;;;;;14.94;80.41;98417.38;4971448;28;20037;-83
2022/11/01 09:05:42;;;;;;;15.48;10.35;;;;;;;15.06;79.45;98417.44;4971107;28;20038;-84
2022/11/01 09:08:08;;;;;;;13.52;9.50;;;;;;;15.15;79.04;98406.34;4971220;28;20058;-84
2022/11/01 09:10:34;;;;;;;13.98;9.98;;;;;;;15.27;78.75;98403.78;4969904;28;20039;-83
2022/11/01 09:13:00;;;;;;;16.27;11.57;;;;;;;15.22;79.50;98412.34;4970827;28;20113;-83
2022/11/01 09:15:26;;;;;;;15.07;10.85;;;;;;;15.30;79.43;98416.56;4971043;28;20045;-83
2022/11/01 09:17:52;;;;;;;13.43;9.70;;;;;;;15.29;78.96;98412.28;4970444;28;20035;-82
2022/11/01 09:20:21;;;;;;;14.60;10.93;;;;;;;15.40;79.44;98419.47;4969766;28;20531;-83
2022/11/01 09:22:51;;;;;;;19.52;12.63;;;;;;;15.48;79.36;98410.44;4969805;28;20055;-83
2022/11/01 09:25:16;;;;;;;18.40;11.37;;;;;;;15.48;78.94;98399.88;4970005;28;20031;-84
2022/11/01 09:27:42;;;;;;;10.70;9.05;;;;;;;15.57;77.82;98410.91;4969986;28;20042;-82
2022/11/01 09:30:09;;;;;;;11.88;8.48;;;;;;;15.66;77.80;98407.78;4970475;28;20121;-83
2022/11/01 09:32:35;;;;;;;10.05;8.38;;;;;;;15.85;77.27;98405.09;4969653;28;20041;-83
2022/11/01 09:35:00;;;;;;;11.15;8.07;;;;;;;15.89;76.73;98407.03;4969686;28;20110;-83
2022/11/01 09:37:26;;;;;;;11.82;9.05;;;;;;;15.95;77.08;98415.91;4969672;28;20031;-83
2022/11/01 09:39:51;;;;;;;10.65;7.97;;;;;;;16.05;76.03;98416.16;4978493;28;20050;-82
2022/11/01 09:42:33;;;;;;;13.52;8.82;;;;;;;16.00;76.84;98423.97;4983279;28;20054;-84
2022/11/01 09:45:09;;;;;;;14.52;9.45;;;;;;;15.95;76.64;98421.19;4963999;28;20514;-83
2022/11/01 09:47:36;;;;;;;14.18;9.23;;;;;;;16.03;77.19;98423.53;4969259;28;20030;-83
2022/11/01 09:50:21;;;;;;;16.58;10.20;;;;;;;16.08;77.67;98428.94;4968311;28;20501;-82
2022/11/01 09:52:53;;;;;;;14.40;9.27;;;;;;;16.05;77.09;98435.50;4968450;28;20031;-83
2022/11/01 09:55:39;;;;;;;12.02;8.90;;;;;;;16.08;77.38;98442.19;4968844;28;20034;-83
2022/11/01 09:59:01;;;;;;;12.60;9.10;;;;;;;16.11;78.48;98447.00;4969823;28;20065;-82
2022/11/01 10:01:39;;;;;;;10.77;8.40;;;;;;;16.19;77.66;98448.50;4968758;28;20035;-83
2022/11/01 10:04:39;;;;;;;10.75;7.15;;;;;;;16.20;75.66;98456.25;4969643;28;20042;-83
2022/11/01 10:07:16;;;;;;;11.73;7.53;;;;;;;16.25;74.95;98458.19;4969613;28;20061;-82
2022/11/01 10:10:15;;;;;;;11.90;6.78;;;;;;;16.25;74.91;98459.03;4969470;28;20038;-82
2022/11/01 10:13:02;;;;;;;9.77;6.80;;;;;;;16.29;76.06;98465.47;4968824;28;20383;-83
2022/11/01 10:16:03;;;;;;;11.88;7.30;;;;;;;16.31;75.64;98468.69;4969325;28;20451;-83
2022/11/01 10:18:31;;;;;;;;;;;;;;;16.35;74.92;98476.16;4960867;28;20050;-82
2022/11/01 10:21:03;;;;;;;13.10;6.72;;;;;;;16.31;74.03;98468.69;4969442;28;20461;-83
2022/11/01 10:23:52;;;;;;;10.30;6.07;;;;;;;16.43;74.19;98479.28;4969362;28;20043;-83
2022/11/01 10:26:26;;;;;;;9.27;6.03;;;;;;;16.55;73.58;98474.84;4969277;28;20047;-83
2022/11/01 10:29:16;;;;;;;7.38;5.95;;;;;;;16.57;73.09;98482.56;4969099;28;20130;-82
2022/11/01 10:31:48;;;;;;;8.00;5.93;;;;;;;16.64;73.00;98475.28;4968822;28;20214;-82
2022/11/01 10:34:43;;;;;;;8.38;5.22;;;;;;;16.75;72.95;98468.44;4969351;28;20340;-82
2022/11/01 10:37:27;;;;;;;7.90;5.90;;;;;;;16.81;72.37;98468.31;4959859;28;20507;-82
2022/11/01 10:39:59;;;;;;;8.43;5.78;;;;;;;16.88;72.19;98464.75;4968678;28;20074;-82
2022/11/01 10:42:27;;;;;;;6.28;5.22;;;;;;;16.89;70.83;98463.69;4969054;28;20528;-82
2022/11/01 10:44:59;;;;;;;5.68;5.10;;;;;;;16.98;71.88;98465.78;4966206;28;20035;-83
2022/11/01 10:47:27;;;;;;;7.57;4.53;;;;;;;17.05;70.95;98457.72;4967577;28;20103;-82
2022/11/01 10:50:03;;;;;;;7.10;4.68;;;;;;;17.15;71.84;98465.84;4969339;28;20649;-82
2022/11/01 10:52:40;;;;;;;6.70;4.70;;;;;;;17.09;69.86;98466.78;4968819;28;20074;-83
2022/11/01 10:55:13;;;;;;;7.75;4.30;;;;;;;17.20;71.14;98465.97;4969033;28;20066;-82
2022/11/01 10:57:48;;;;;;;5.00;4.45;;;;;;;17.39;70.66;98458.66;4971592;28;20038;-83
2022/11/01 11:00:18;;;;;;;8.82;4.93;;;;;;;17.47;69.35;98460.97;4972168;28;20436;-82
2022/11/01 11:02:52;;;;;;;5.93;4.10;;;;;;;17.66;69.58;98450.97;4971437;28;20034;-83
2022/11/01 11:05:21;;;;;;;5.35;4.47;;;;;;;17.74;69.62;98455.94;4971857;28;20462;-82
2022/11/01 11:07:47;;;;;;;7.95;4.85;;;;;;;17.64;68.13;98451.22;4970245;28;20062;-82
2022/11/01 11:10:27;;;;;;;6.97;5.03;;;;;;;17.81;70.29;98447.81;4972590;28;20427;-82
2022/11/01 11:13:01;;;;;;;5.32;4.47;;;;;;;18.02;68.05;98447.16;4971793;28;20027;-83
2022/11/01 11:15:50;;;;;;;7.88;4.60;;;;;;;18.04;68.13;98452.22;4972179;28;20093;-83
2022/11/01 11:18:26;;;;;;;5.68;4.35;;;;;;;17.87;67.67;98442.41;4972046;28;20043;-82
2022/11/01 11:20:58;;;;;;;5.32;4.45;;;;;;;17.99;68.26;98447.63;4972561;28;20136;-83
2022/11/01 11:23:28;;;;;;;5.93;4.28;;;;;;;18.00;68.78;98435.19;4972339;28;20030;-82
2022/11/01 11:26:19;;;;;;;9.15;4.20;;;;;;;18.13;68.93;98448.16;4972466;28;20054;-83
2022/11/01 11:28:49;;;;;;;;;;;;;;;18.13;67.89;98445.50;4971993;28;21352;-83
2022/11/01 11:31:30;;;;;;;6.30;4.43;;;;;;;18.00;68.47;98453.75;4971652;28;20541;-83
2022/11/01 11:34:16;;;;;;;8.57;4.50;;;;;;;17.98;69.70;98451.31;4972786;28;20105;-82
2022/11/01 11:36:48;;;;;;;6.32;4.70;;;;;;;17.95;69.28;98451.81;4972277;28;20117;-82
2022/11/01 11:39:47;;;;;;;8.63;4.35;;;;;;;18.00;69.85;98448.47;4971480;28;20039;-83
2022/11/01 11:42:29;;;;;;;5.45;3.83;;;;;;;18.06;71.03;98452.81;4971041;28;20035;-83